createdAt,value
2022-08-22T00:00:27.738Z,3.63
2022-08-22T00:02:57.556Z,5.43
2022-08-22T00:03:02.381Z,2.33
2022-08-22T00:03:07.363Z,2.80
2022-08-22T00:04:48.822Z,4.25
2022-08-22T00:09:00.026Z,4.65
2022-08-22T00:13:04.534Z,3.50
2022-08-22T00:17:45.331Z,3.92
2022-08-22T00:22:09.896Z,5.03
2022-08-22T00:26:33.944Z,3.50
2022-08-22T00:30:48.774Z,3.92
2022-08-22T00:35:18.253Z,5.47
2022-08-22T00:39:30.014Z,5.75
2022-08-22T00:43:31.869Z,4.40
2022-08-22T00:47:55.428Z,5.05
2022-08-22T00:52:18.972Z,3.60
2022-08-22T00:56:38.713Z,3.40
2022-08-22T01:00:50.777Z,4.80
2022-08-22T01:05:11.648Z,3.55
2022-08-22T01:09:31.810Z,3.50
2022-08-22T01:13:58.381Z,4.25
2022-08-22T01:18:18.892Z,5.78
2022-08-22T01:22:38.560Z,7.45
2022-08-22T01:27:08.106Z,4.45
2022-08-22T01:31:31.317Z,3.88
2022-08-22T01:35:56.335Z,3.95
2022-08-22T01:40:53.297Z,5.38
2022-08-22T01:45:09.713Z,3.97
2022-08-22T01:49:21.767Z,3.55
2022-08-22T01:53:48.025Z,5.07
2022-08-22T01:57:57.528Z,4.82
2022-08-22T02:02:22.290Z,4.00
2022-08-22T02:06:50.155Z,3.85
2022-08-22T02:11:07.856Z,5.03
2022-08-22T02:15:12.716Z,5.43
2022-08-22T02:19:14.583Z,5.50
2022-08-22T02:23:30.122Z,3.88
2022-08-22T02:28:07.106Z,3.38
2022-08-22T02:32:32.395Z,4.70
2022-08-22T02:36:53.893Z,4.95
2022-08-22T02:41:29.099Z,3.95
2022-08-22T02:46:00.653Z,4.22
2022-08-22T02:50:37.860Z,4.93
2022-08-22T02:54:45.970Z,5.40
2022-08-22T03:03:17.182Z,3.45
2022-08-22T03:07:21.846Z,5.13
2022-08-22T03:11:28.953Z,4.03
2022-08-22T03:15:34.271Z,6.60
2022-08-22T03:19:48.024Z,4.53
2022-08-22T03:23:55.553Z,5.82
2022-08-22T03:28:02.598Z,4.80
2022-08-22T03:32:06.320Z,6.00
2022-08-22T03:36:14.304Z,5.05
2022-08-22T03:44:58.066Z,5.15
2022-08-22T03:49:16.010Z,6.45
2022-08-22T03:53:27.708Z,4.55
2022-08-22T03:57:59.207Z,4.57
2022-08-22T04:02:24.675Z,4.95
2022-08-22T04:07:17.766Z,4.85
2022-08-22T04:11:53.061Z,4.03
2022-08-22T04:16:15.045Z,4.03
2022-08-22T04:20:29.382Z,4.32
2022-08-22T04:24:48.932Z,4.10
2022-08-22T04:29:03.498Z,4.30
2022-08-22T04:33:08.653Z,3.65
2022-08-22T04:37:18.445Z,4.95
2022-08-22T04:41:29.934Z,3.90
2022-08-22T04:45:57.231Z,4.63
2022-08-22T04:50:15.367Z,5.22
2022-08-22T04:54:17.222Z,4.85
2022-08-22T04:58:44.525Z,6.22
2022-08-22T05:02:55.118Z,4.55
2022-08-22T05:06:59.242Z,4.82
2022-08-22T05:11:05.799Z,5.43
2022-08-22T05:15:23.154Z,6.15
2022-08-22T05:19:33.315Z,4.73
2022-08-22T05:23:43.478Z,5.80
2022-08-22T05:27:51.215Z,5.43
2022-08-22T05:32:06.179Z,5.50
2022-08-22T05:36:12.252Z,4.88
2022-08-22T05:40:22.597Z,5.45
2022-08-22T05:44:31.926Z,4.50
2022-08-22T05:48:46.285Z,4.93
2022-08-22T05:53:20.985Z,5.03
2022-08-22T05:57:29.019Z,7.47
2022-08-22T06:01:47.227Z,7.05
2022-08-22T06:05:53.431Z,27.83
2022-08-22T06:10:37.170Z,20.17
2022-08-22T06:14:42.294Z,24.65
2022-08-22T06:18:45.983Z,7.35
2022-08-22T06:22:55.885Z,5.68
2022-08-22T06:27:05.465Z,5.32
2022-08-22T06:31:13.760Z,4.45
2022-08-22T06:35:57.073Z,4.78
2022-08-22T06:40:02.723Z,4.55
2022-08-22T06:44:07.018Z,4.25
2022-08-22T06:48:08.890Z,4.35
2022-08-22T06:52:21.169Z,4.88
2022-08-22T06:56:33.238Z,7.13
2022-08-22T07:00:35.800Z,4.32
2022-08-22T07:04:38.254Z,8.10
2022-08-22T07:08:40.483Z,5.18
2022-08-22T07:12:48.491Z,5.38
2022-08-22T07:17:04.449Z,7.13
2022-08-22T07:21:09.308Z,5.00
2022-08-22T07:25:14.920Z,4.32
2022-08-22T07:29:49.582Z,4.60
2022-08-22T07:33:55.667Z,4.65
2022-08-22T07:38:13.928Z,3.42
2022-08-22T07:42:27.492Z,4.55
2022-08-22T07:46:37.656Z,5.25
2022-08-22T07:50:57.436Z,5.43
2022-08-22T07:55:18.718Z,3.88
2022-08-22T07:59:22.410Z,4.30
2022-08-22T08:03:27.832Z,5.28
2022-08-22T08:07:30.354Z,4.43
2022-08-22T08:11:40.132Z,3.85
2022-08-22T08:15:45.916Z,3.72
2022-08-22T08:19:50.718Z,3.90
2022-08-22T08:23:54.956Z,3.38
2022-08-22T08:28:18.236Z,3.78
2022-08-22T08:32:23.683Z,4.95
2022-08-22T08:36:48.686Z,4.68
2022-08-22T08:41:12.232Z,4.38
2022-08-22T08:45:24.812Z,5.13
2022-08-22T08:49:56.761Z,4.18
2022-08-22T08:54:16.528Z,4.25
2022-08-22T08:58:38.069Z,5.47
2022-08-22T09:03:15.478Z,4.78
2022-08-22T09:07:37.554Z,5.63
2022-08-22T09:12:06.890Z,4.03
2022-08-22T09:16:51.555Z,4.30
2022-08-22T09:21:02.687Z,4.05
2022-08-22T09:25:24.648Z,4.70
2022-08-22T09:34:42.324Z,4.65
2022-08-22T09:39:15.406Z,3.93
2022-08-22T09:40:16.242Z,4.95
2022-08-22T09:43:25.697Z,3.50
2022-08-22T09:47:39.909Z,3.60
2022-08-22T09:52:05.282Z,3.33
2022-08-22T09:56:32.197Z,4.63
2022-08-22T10:00:55.488Z,3.00
2022-08-22T10:05:10.105Z,4.10
2022-08-22T10:09:31.407Z,3.33
2022-08-22T10:13:51.931Z,3.88
2022-08-22T10:18:05.622Z,2.65
2022-08-22T10:22:29.854Z,2.50
2022-08-22T10:26:47.563Z,3.97
2022-08-22T10:30:54.933Z,3.28
2022-08-22T10:35:10.289Z,2.92
2022-08-22T10:39:22.630Z,3.60
2022-08-22T10:43:44.336Z,3.80
2022-08-22T10:47:58.496Z,2.13
2022-08-22T10:52:14.715Z,3.33
2022-08-22T10:56:38.290Z,3.83
2022-08-22T11:00:49.685Z,3.60
2022-08-22T11:05:30.725Z,3.05
2022-08-22T11:09:54.249Z,2.60
2022-08-22T11:14:12.094Z,2.20
2022-08-22T11:18:42.070Z,3.10
2022-08-22T11:22:59.278Z,3.17
2022-08-22T11:27:20.809Z,3.05
2022-08-22T11:31:36.495Z,2.00
2022-08-22T11:35:54.875Z,2.17
2022-08-22T11:40:04.257Z,3.65
2022-08-22T11:44:16.451Z,1.92
2022-08-22T11:48:22.211Z,2.17
2022-08-22T11:52:42.653Z,3.08
2022-08-22T11:57:06.636Z,2.83
2022-08-22T12:01:18.581Z,3.20
2022-08-22T12:05:26.734Z,1.83
2022-08-22T12:09:52.092Z,2.50
2022-08-22T12:14:04.027Z,1.92
2022-08-22T12:18:36.137Z,1.88
2022-08-22T12:22:55.984Z,2.70
2022-08-22T12:27:28.927Z,3.45
2022-08-22T12:31:58.624Z,2.75
2022-08-22T12:36:18.047Z,1.67
2022-08-22T12:41:10.072Z,3.13
2022-08-22T12:45:30.244Z,1.90
2022-08-22T12:49:37.027Z,2.00
2022-08-22T12:53:51.152Z,1.70
2022-08-22T12:58:33.080Z,2.70
2022-08-22T13:02:39.637Z,2.45
2022-08-22T13:06:41.457Z,2.10
2022-08-22T13:10:58.329Z,3.67
2022-08-22T13:15:13.399Z,4.72
2022-08-22T13:19:25.548Z,2.63
2022-08-22T13:23:51.204Z,2.03
2022-08-22T13:28:03.813Z,2.25
2022-08-22T13:32:06.687Z,4.32
2022-08-22T13:36:13.859Z,4.78
2022-08-22T13:40:29.101Z,3.13
2022-08-22T13:44:45.129Z,2.78
2022-08-22T13:48:52.554Z,2.08
2022-08-22T13:53:10.755Z,2.75
2022-08-22T13:57:26.761Z,3.00
2022-08-22T14:01:39.170Z,2.83
2022-08-22T14:05:53.124Z,3.45
2022-08-22T14:09:57.402Z,1.50
2022-08-22T14:14:03.969Z,2.72
2022-08-22T14:18:30.375Z,2.53
2022-08-22T14:22:35.757Z,1.40
2022-08-22T14:26:47.835Z,1.73
2022-08-22T14:31:13.553Z,2.53
2022-08-22T14:35:35.049Z,2.33
2022-08-22T14:39:48.964Z,2.38
2022-08-22T14:43:57.924Z,2.00
2022-08-22T14:48:29.474Z,3.00
2022-08-22T14:52:36.524Z,3.80
2022-08-22T14:56:40.175Z,1.83
2022-08-22T15:00:47.367Z,1.92
2022-08-22T15:04:55.015Z,1.90
2022-08-22T15:08:57.905Z,2.08
2022-08-22T15:13:05.281Z,1.30
2022-08-22T15:17:10.735Z,2.35
2022-08-22T15:21:24.141Z,2.38
2022-08-22T15:25:31.642Z,1.73
2022-08-22T15:29:49.205Z,1.92
2022-08-22T15:33:52.056Z,2.78
2022-08-22T15:38:20.152Z,1.55
2022-08-22T15:42:27.268Z,4.20
2022-08-22T15:46:33.565Z,2.88
2022-08-22T15:50:55.855Z,2.42
2022-08-22T15:55:19.029Z,2.90
2022-08-22T15:59:47.685Z,2.95
2022-08-22T16:04:02.957Z,2.55
2022-08-22T16:08:09.516Z,2.50
2022-08-22T16:12:33.179Z,2.97
2022-08-22T16:16:55.925Z,2.60
2022-08-22T16:20:58.337Z,2.88
2022-08-22T16:25:02.789Z,3.33
2022-08-22T16:29:14.709Z,4.35
2022-08-22T16:33:48.943Z,2.50
2022-08-22T16:37:51.617Z,3.55
2022-08-22T16:42:16.304Z,2.42
2022-08-22T16:46:33.266Z,3.22
2022-08-22T16:50:40.987Z,3.80
2022-08-22T16:54:47.939Z,3.42
2022-08-22T16:59:23.129Z,2.97
2022-08-22T17:03:59.430Z,2.78
2022-08-22T17:08:16.643Z,4.18
2022-08-22T17:12:51.837Z,3.03
2022-08-22T17:17:02.451Z,3.38
2022-08-22T17:21:12.070Z,2.88
2022-08-22T17:25:16.743Z,3.22
2022-08-22T17:29:24.289Z,4.03
2022-08-22T17:33:41.403Z,2.80
2022-08-22T17:37:53.028Z,2.95
2022-08-22T17:42:04.631Z,3.83
2022-08-22T17:46:30.474Z,3.28
2022-08-22T17:50:41.323Z,4.95
2022-08-22T17:54:55.627Z,3.10
2022-08-22T17:59:20.698Z,2.30
2022-08-22T18:03:36.586Z,6.90
2022-08-22T18:07:57.053Z,3.30
2022-08-22T18:12:07.456Z,2.80
2022-08-22T18:16:18.726Z,2.40
2022-08-22T18:20:39.952Z,2.45
2022-08-22T18:24:50.295Z,3.45
2022-08-22T18:29:19.718Z,3.05
2022-08-22T18:33:27.728Z,2.45
2022-08-22T18:37:35.822Z,2.58
2022-08-22T18:41:50.356Z,2.67
2022-08-22T18:45:52.227Z,2.95
2022-08-22T18:49:55.717Z,2.58
2022-08-22T18:54:13.456Z,13.63
2022-08-22T18:58:27.261Z,4.10
2022-08-22T19:02:34.944Z,3.63
2022-08-22T19:06:58.590Z,3.25
2022-08-22T19:11:37.250Z,3.05
2022-08-22T19:16:01.854Z,3.17
2022-08-22T19:20:27.806Z,4.15
2022-08-22T19:24:35.925Z,2.65
2022-08-22T19:28:39.541Z,2.78
2022-08-22T19:32:44.478Z,3.15
2022-08-22T19:37:06.694Z,2.67
2022-08-22T19:41:44.822Z,4.10
2022-08-22T19:45:46.779Z,6.03
2022-08-22T19:50:23.740Z,4.10
2022-08-22T19:54:26.894Z,3.22
2022-08-22T19:58:37.644Z,2.97
2022-08-22T20:02:51.524Z,4.50
2022-08-22T20:07:14.852Z,5.55
2022-08-22T20:11:20.010Z,5.47
2022-08-22T20:15:25.974Z,4.88
2022-08-22T20:20:16.469Z,3.72
2022-08-22T20:24:07.853Z,4.50
2022-08-22T20:28:26.542Z,4.38
2022-08-22T20:32:30.146Z,3.65
2022-08-22T20:36:32.562Z,4.78
2022-08-22T20:40:55.679Z,5.15
2022-08-22T20:45:00.947Z,4.63
2022-08-22T20:49:03.957Z,3.65
2022-08-22T20:53:18.491Z,7.03
2022-08-22T20:57:21.619Z,2.90
2022-08-22T21:01:23.739Z,3.20
2022-08-22T21:05:43.331Z,4.25
2022-08-22T21:10:13.669Z,3.22
2022-08-22T21:14:25.177Z,3.15
2022-08-22T21:18:40.491Z,2.65
2022-08-22T21:22:42.599Z,3.65
2022-08-22T21:27:01.994Z,4.93
2022-08-22T21:31:25.639Z,6.50
2022-08-22T21:35:33.159Z,2.92
2022-08-22T21:39:40.699Z,4.28
2022-08-22T21:43:42.695Z,2.95
2022-08-22T21:47:50.293Z,6.35
2022-08-22T21:51:52.516Z,3.60
2022-08-22T21:56:13.326Z,2.95
2022-08-22T22:00:40.540Z,5.22
2022-08-22T22:04:50.865Z,3.25
2022-08-22T22:08:52.818Z,3.53
2022-08-22T22:12:58.818Z,2.75
2022-08-22T22:17:00.774Z,3.25
2022-08-22T22:21:03.219Z,5.35
2022-08-22T22:25:05.801Z,3.28
2022-08-22T22:29:27.857Z,3.22
2022-08-22T22:33:32.757Z,2.92
2022-08-22T22:37:36.636Z,3.58
2022-08-22T22:41:43.625Z,3.90
2022-08-22T22:45:45.560Z,4.35
2022-08-22T22:49:47.463Z,3.88
2022-08-22T22:53:49.817Z,2.60
2022-08-22T22:57:58.466Z,3.42
2022-08-22T23:02:08.514Z,3.63
2022-08-22T23:06:13.137Z,3.30
2022-08-22T23:10:17.686Z,2.95
2022-08-22T23:14:23.449Z,3.95
2022-08-22T23:18:30.338Z,3.05
2022-08-22T23:22:32.663Z,4.47
2022-08-22T23:26:35.019Z,6.47
2022-08-22T23:30:38.583Z,3.28
2022-08-22T23:34:45.800Z,2.85
2022-08-22T23:38:49.569Z,3.03
2022-08-22T23:42:51.430Z,2.97
2022-08-22T23:46:53.791Z,3.60
2022-08-22T23:50:55.792Z,3.03
2022-08-22T23:54:57.729Z,2.53
2022-08-22T23:59:01.827Z,3.28
